sensor_id;sensor_type;location;lat;lon;timestamp;P1;durP1;ratioP1;P2;durP2;ratioP2
11338;SDS011;5724;42.684;23.252;2023-06-22T00:01:27;15.15;;;13.98;;
11338;SDS011;5724;42.684;23.252;2023-06-22T00:03:53;15.00;;;13.45;;
11338;SDS011;5724;42.684;23.252;2023-06-22T00:06:19;14.70;;;13.50;;
11338;SDS011;5724;42.684;23.252;2023-06-22T00:08:44;14.77;;;13.68;;
11338;SDS011;5724;42.684;23.252;2023-06-22T00:11:10;15.38;;;13.95;;
11338;SDS011;5724;42.684;23.252;2023-06-22T00:13:35;14.82;;;13.52;;
11338;SDS011;5724;42.684;23.252;2023-06-22T00:16:01;15.52;;;14.25;;
11338;SDS011;5724;42.684;23.252;2023-06-22T00:18:26;13.68;;;12.48;;
11338;SDS011;5724;42.684;23.252;2023-06-22T00:20:54;14.65;;;13.45;;
11338;SDS011;5724;42.684;23.252;2023-06-22T00:23:25;14.65;;;13.43;;
11338;SDS011;5724;42.684;23.252;2023-06-22T00:25:51;16.45;;;15.15;;
11338;SDS011;5724;42.684;23.252;2023-06-22T00:28:17;15.40;;;14.07;;
11338;SDS011;5724;42.684;23.252;2023-06-22T00:30:42;16.00;;;14.52;;
11338;SDS011;5724;42.684;23.252;2023-06-22T00:33:08;15.57;;;14.35;;
11338;SDS011;5724;42.684;23.252;2023-06-22T00:35:33;14.90;;;13.57;;
11338;SDS011;5724;42.684;23.252;2023-06-22T00:37:59;14.45;;;13.30;;
11338;SDS011;5724;42.684;23.252;2023-06-22T00:40:32;14.20;;;12.88;;
11338;SDS011;5724;42.684;23.252;2023-06-22T00:42:58;13.60;;;12.52;;
11338;SDS011;5724;42.684;23.252;2023-06-22T00:45:24;13.00;;;12.00;;
11338;SDS011;5724;42.684;23.252;2023-06-22T00:47:51;12.40;;;11.45;;
11338;SDS011;5724;42.684;23.252;2023-06-22T00:50:18;12.45;;;11.20;;
11338;SDS011;5724;42.684;23.252;2023-06-22T00:52:48;11.30;;;10.50;;
11338;SDS011;5724;42.684;23.252;2023-06-22T00:55:16;13.68;;;12.55;;
11338;SDS011;5724;42.684;23.252;2023-06-22T00:57:43;13.27;;;12.00;;
11338;SDS011;5724;42.684;23.252;2023-06-22T01:00:11;12.52;;;11.63;;
11338;SDS011;5724;42.684;23.252;2023-06-22T01:02:43;13.00;;;12.07;;
11338;SDS011;5724;42.684;23.252;2023-06-22T01:05:14;14.57;;;13.27;;
11338;SDS011;5724;42.684;23.252;2023-06-22T01:07:44;13.57;;;12.60;;
11338;SDS011;5724;42.684;23.252;2023-06-22T01:10:21;16.30;;;14.93;;
11338;SDS011;5724;42.684;23.252;2023-06-22T01:12:55;12.70;;;11.75;;
11338;SDS011;5724;42.684;23.252;2023-06-22T01:15:33;15.40;;;14.23;;
11338;SDS011;5724;42.684;23.252;2023-06-22T01:18:06;15.02;;;13.82;;
11338;SDS011;5724;42.684;23.252;2023-06-22T01:20:34;15.05;;;13.88;;
11338;SDS011;5724;42.684;23.252;2023-06-22T01:26:08;12.88;;;11.77;;
11338;SDS011;5724;42.684;23.252;2023-06-22T01:28:56;12.68;;;11.77;;
11338;SDS011;5724;42.684;23.252;2023-06-22T01:31:25;12.50;;;11.70;;
11338;SDS011;5724;42.684;23.252;2023-06-22T01:33:53;12.13;;;11.20;;
11338;SDS011;5724;42.684;23.252;2023-06-22T01:36:22;11.43;;;10.70;;
11338;SDS011;5724;42.684;23.252;2023-06-22T01:38:49;11.68;;;10.98;;
11338;SDS011;5724;42.684;23.252;2023-06-22T01:41:16;10.30;;;9.55;;
11338;SDS011;5724;42.684;23.252;2023-06-22T01:43:43;12.13;;;11.18;;
11338;SDS011;5724;42.684;23.252;2023-06-22T01:46:10;12.60;;;11.45;;
11338;SDS011;5724;42.684;23.252;2023-06-22T01:48:36;13.73;;;12.57;;
11338;SDS011;5724;42.684;23.252;2023-06-22T01:51:04;10.90;;;10.27;;
11338;SDS011;5724;42.684;23.252;2023-06-22T01:53:29;11.55;;;10.77;;
11338;SDS011;5724;42.684;23.252;2023-06-22T01:55:55;11.68;;;10.82;;
11338;SDS011;5724;42.684;23.252;2023-06-22T01:58:23;11.52;;;10.63;;
11338;SDS011;5724;42.684;23.252;2023-06-22T02:01:13;11.90;;;11.05;;
11338;SDS011;5724;42.684;23.252;2023-06-22T02:03:44;11.60;;;10.90;;
11338;SDS011;5724;42.684;23.252;2023-06-22T02:06:17;12.43;;;11.45;;
11338;SDS011;5724;42.684;23.252;2023-06-22T02:08:54;13.95;;;12.75;;
11338;SDS011;5724;42.684;23.252;2023-06-22T02:11:22;15.18;;;13.77;;
11338;SDS011;5724;42.684;23.252;2023-06-22T02:13:52;14.65;;;13.40;;
11338;SDS011;5724;42.684;23.252;2023-06-22T02:16:18;15.80;;;14.13;;
11338;SDS011;5724;42.684;23.252;2023-06-22T02:18:50;15.05;;;13.77;;
11338;SDS011;5724;42.684;23.252;2023-06-22T02:21:20;15.45;;;14.15;;
11338;SDS011;5724;42.684;23.252;2023-06-22T02:23:46;15.15;;;14.15;;
11338;SDS011;5724;42.684;23.252;2023-06-22T02:26:12;15.38;;;14.13;;
11338;SDS011;5724;42.684;23.252;2023-06-22T02:28:38;15.57;;;14.23;;
11338;SDS011;5724;42.684;23.252;2023-06-22T02:31:03;16.40;;;14.95;;
11338;SDS011;5724;42.684;23.252;2023-06-22T02:33:29;15.23;;;13.93;;
11338;SDS011;5724;42.684;23.252;2023-06-22T02:35:55;17.17;;;15.80;;
11338;SDS011;5724;42.684;23.252;2023-06-22T02:38:20;16.30;;;14.90;;
11338;SDS011;5724;42.684;23.252;2023-06-22T02:40:46;16.02;;;14.40;;
11338;SDS011;5724;42.684;23.252;2023-06-22T02:43:12;15.70;;;14.60;;
11338;SDS011;5724;42.684;23.252;2023-06-22T02:45:38;15.38;;;14.18;;
11338;SDS011;5724;42.684;23.252;2023-06-22T02:48:03;15.85;;;14.68;;
11338;SDS011;5724;42.684;23.252;2023-06-22T02:50:29;15.07;;;13.88;;
11338;SDS011;5724;42.684;23.252;2023-06-22T02:52:55;15.30;;;14.07;;
11338;SDS011;5724;42.684;23.252;2023-06-22T02:55:20;14.55;;;13.32;;
11338;SDS011;5724;42.684;23.252;2023-06-22T02:57:46;14.20;;;13.20;;
11338;SDS011;5724;42.684;23.252;2023-06-22T03:00:13;15.70;;;14.40;;
11338;SDS011;5724;42.684;23.252;2023-06-22T03:02:46;14.07;;;12.88;;
11338;SDS011;5724;42.684;23.252;2023-06-22T03:05:13;15.10;;;13.70;;
11338;SDS011;5724;42.684;23.252;2023-06-22T03:07:43;14.52;;;13.05;;
11338;SDS011;5724;42.684;23.252;2023-06-22T03:10:09;15.30;;;12.43;;
11338;SDS011;5724;42.684;23.252;2023-06-22T03:12:36;15.00;;;13.50;;
11338;SDS011;5724;42.684;23.252;2023-06-22T03:15:05;14.82;;;13.32;;
11338;SDS011;5724;42.684;23.252;2023-06-22T03:17:33;15.90;;;14.23;;
11338;SDS011;5724;42.684;23.252;2023-06-22T03:19:59;16.58;;;14.98;;
11338;SDS011;5724;42.684;23.252;2023-06-22T03:22:24;16.08;;;14.38;;
11338;SDS011;5724;42.684;23.252;2023-06-22T03:24:50;13.95;;;12.77;;
11338;SDS011;5724;42.684;23.252;2023-06-22T03:27:15;14.60;;;13.27;;
11338;SDS011;5724;42.684;23.252;2023-06-22T03:29:41;14.52;;;13.20;;
11338;SDS011;5724;42.684;23.252;2023-06-22T03:32:06;14.80;;;13.27;;
11338;SDS011;5724;42.684;23.252;2023-06-22T03:34:33;15.15;;;13.50;;
11338;SDS011;5724;42.684;23.252;2023-06-22T03:37:01;15.30;;;12.43;;
11338;SDS011;5724;42.684;23.252;2023-06-22T03:39:26;11.32;;;10.43;;
11338;SDS011;5724;42.684;23.252;2023-06-22T03:41:52;11.40;;;10.48;;
11338;SDS011;5724;42.684;23.252;2023-06-22T03:44:17;11.10;;;10.02;;
11338;SDS011;5724;42.684;23.252;2023-06-22T03:46:43;11.60;;;10.60;;
11338;SDS011;5724;42.684;23.252;2023-06-22T03:49:08;11.50;;;10.57;;
11338;SDS011;5724;42.684;23.252;2023-06-22T03:51:34;12.43;;;11.00;;
11338;SDS011;5724;42.684;23.252;2023-06-22T03:53:59;12.18;;;11.20;;
11338;SDS011;5724;42.684;23.252;2023-06-22T03:56:24;11.65;;;10.60;;
11338;SDS011;5724;42.684;23.252;2023-06-22T03:58:50;16.42;;;11.25;;
11338;SDS011;5724;42.684;23.252;2023-06-22T04:01:15;11.85;;;10.95;;
11338;SDS011;5724;42.684;23.252;2023-06-22T04:03:42;10.70;;;10.00;;
11338;SDS011;5724;42.684;23.252;2023-06-22T04:06:09;10.55;;;9.82;;
11338;SDS011;5724;42.684;23.252;2023-06-22T04:08:35;11.75;;;10.60;;
11338;SDS011;5724;42.684;23.252;2023-06-22T04:11:00;12.45;;;11.25;;
11338;SDS011;5724;42.684;23.252;2023-06-22T04:13:26;11.55;;;10.65;;
11338;SDS011;5724;42.684;23.252;2023-06-22T04:15:51;11.80;;;10.88;;
11338;SDS011;5724;42.684;23.252;2023-06-22T04:18:17;12.88;;;11.88;;
11338;SDS011;5724;42.684;23.252;2023-06-22T04:20:42;12.27;;;11.20;;
11338;SDS011;5724;42.684;23.252;2023-06-22T04:23:10;12.30;;;11.38;;
11338;SDS011;5724;42.684;23.252;2023-06-22T04:25:36;11.63;;;10.63;;
11338;SDS011;5724;42.684;23.252;2023-06-22T04:28:01;13.65;;;11.35;;
11338;SDS011;5724;42.684;23.252;2023-06-22T04:30:29;12.63;;;11.20;;
11338;SDS011;5724;42.684;23.252;2023-06-22T04:32:56;11.32;;;10.60;;
11338;SDS011;5724;42.684;23.252;2023-06-22T04:35:23;12.52;;;11.63;;
11338;SDS011;5724;42.684;23.252;2023-06-22T04:37:49;16.50;;;11.93;;
11338;SDS011;5724;42.684;23.252;2023-06-22T04:40:15;12.00;;;11.15;;
11338;SDS011;5724;42.684;23.252;2023-06-22T04:42:40;16.48;;;12.43;;
11338;SDS011;5724;42.684;23.252;2023-06-22T04:45:17;12.88;;;11.82;;
11338;SDS011;5724;42.684;23.252;2023-06-22T04:47:43;13.98;;;12.43;;
11338;SDS011;5724;42.684;23.252;2023-06-22T04:50:13;13.30;;;12.05;;
11338;SDS011;5724;42.684;23.252;2023-06-22T04:52:39;14.80;;;13.07;;
11338;SDS011;5724;42.684;23.252;2023-06-22T04:55:04;14.07;;;12.77;;
11338;SDS011;5724;42.684;23.252;2023-06-22T04:57:30;16.17;;;13.25;;
11338;SDS011;5724;42.684;23.252;2023-06-22T05:00:00;12.90;;;11.80;;
11338;SDS011;5724;42.684;23.252;2023-06-22T05:02:26;12.23;;;10.73;;
11338;SDS011;5724;42.684;23.252;2023-06-22T05:04:53;11.43;;;10.50;;
11338;SDS011;5724;42.684;23.252;2023-06-22T05:07:26;10.43;;;9.63;;
11338;SDS011;5724;42.684;23.252;2023-06-22T05:09:52;12.18;;;10.93;;
11338;SDS011;5724;42.684;23.252;2023-06-22T05:12:17;11.90;;;10.82;;
11338;SDS011;5724;42.684;23.252;2023-06-22T05:14:43;12.77;;;11.55;;
11338;SDS011;5724;42.684;23.252;2023-06-22T05:17:08;12.25;;;11.25;;
11338;SDS011;5724;42.684;23.252;2023-06-22T05:19:38;11.75;;;10.75;;
11338;SDS011;5724;42.684;23.252;2023-06-22T05:22:04;11.80;;;10.25;;
11338;SDS011;5724;42.684;23.252;2023-06-22T05:24:31;11.35;;;10.40;;
11338;SDS011;5724;42.684;23.252;2023-06-22T05:26:57;11.30;;;10.25;;
11338;SDS011;5724;42.684;23.252;2023-06-22T05:29:22;12.35;;;10.00;;
11338;SDS011;5724;42.684;23.252;2023-06-22T05:31:48;11.20;;;10.23;;
11338;SDS011;5724;42.684;23.252;2023-06-22T05:34:14;12.18;;;11.10;;
11338;SDS011;5724;42.684;23.252;2023-06-22T05:36:39;12.60;;;11.63;;
11338;SDS011;5724;42.684;23.252;2023-06-22T05:39:14;12.07;;;11.07;;
11338;SDS011;5724;42.684;23.252;2023-06-22T05:41:40;13.05;;;11.90;;
11338;SDS011;5724;42.684;23.252;2023-06-22T05:44:06;11.07;;;10.38;;
11338;SDS011;5724;42.684;23.252;2023-06-22T05:46:32;10.75;;;9.85;;
11338;SDS011;5724;42.684;23.252;2023-06-22T05:48:57;9.88;;;9.10;;
11338;SDS011;5724;42.684;23.252;2023-06-22T05:51:23;10.25;;;9.18;;
11338;SDS011;5724;42.684;23.252;2023-06-22T05:53:48;10.52;;;9.52;;
11338;SDS011;5724;42.684;23.252;2023-06-22T05:56:18;10.82;;;10.23;;
11338;SDS011;5724;42.684;23.252;2023-06-22T05:58:43;11.68;;;10.68;;
11338;SDS011;5724;42.684;23.252;2023-06-22T06:01:09;11.02;;;10.20;;
11338;SDS011;5724;42.684;23.252;2023-06-22T06:03:35;10.85;;;10.05;;
11338;SDS011;5724;42.684;23.252;2023-06-22T06:06:06;10.88;;;10.05;;
11338;SDS011;5724;42.684;23.252;2023-06-22T06:08:32;13.30;;;10.85;;
11338;SDS011;5724;42.684;23.252;2023-06-22T06:10:58;12.50;;;11.70;;
11338;SDS011;5724;42.684;23.252;2023-06-22T06:13:24;12.60;;;11.48;;
11338;SDS011;5724;42.684;23.252;2023-06-22T06:15:49;11.25;;;10.43;;
11338;SDS011;5724;42.684;23.252;2023-06-22T06:18:16;12.70;;;11.32;;
11338;SDS011;5724;42.684;23.252;2023-06-22T06:20:42;11.55;;;10.45;;
11338;SDS011;5724;42.684;23.252;2023-06-22T06:23:07;12.32;;;11.07;;
11338;SDS011;5724;42.684;23.252;2023-06-22T06:25:33;11.18;;;10.32;;
11338;SDS011;5724;42.684;23.252;2023-06-22T06:27:58;12.65;;;11.07;;
11338;SDS011;5724;42.684;23.252;2023-06-22T06:30:24;11.27;;;10.68;;
11338;SDS011;5724;42.684;23.252;2023-06-22T06:32:50;11.85;;;10.88;;
11338;SDS011;5724;42.684;23.252;2023-06-22T06:35:17;13.38;;;9.90;;
11338;SDS011;5724;42.684;23.252;2023-06-22T06:37:47;11.63;;;10.80;;
11338;SDS011;5724;42.684;23.252;2023-06-22T06:40:13;11.18;;;10.48;;
11338;SDS011;5724;42.684;23.252;2023-06-22T06:42:42;11.95;;;10.48;;
11338;SDS011;5724;42.684;23.252;2023-06-22T06:45:20;11.88;;;10.85;;
11338;SDS011;5724;42.684;23.252;2023-06-22T06:47:47;13.05;;;11.90;;
11338;SDS011;5724;42.684;23.252;2023-06-22T06:50:14;12.93;;;11.55;;
11338;SDS011;5724;42.684;23.252;2023-06-22T06:52:39;12.15;;;11.25;;
11338;SDS011;5724;42.684;23.252;2023-06-22T06:55:05;13.45;;;11.15;;
11338;SDS011;5724;42.684;23.252;2023-06-22T06:57:33;12.57;;;11.45;;
11338;SDS011;5724;42.684;23.252;2023-06-22T06:59:59;11.57;;;10.70;;
11338;SDS011;5724;42.684;23.252;2023-06-22T07:02:25;13.48;;;12.30;;
11338;SDS011;5724;42.684;23.252;2023-06-22T07:04:53;13.57;;;12.27;;
11338;SDS011;5724;42.684;23.252;2023-06-22T07:07:20;15.35;;;13.98;;
11338;SDS011;5724;42.684;23.252;2023-06-22T07:09:46;14.68;;;12.95;;
11338;SDS011;5724;42.684;23.252;2023-06-22T07:12:12;12.77;;;11.75;;
11338;SDS011;5724;42.684;23.252;2023-06-22T07:14:37;13.90;;;12.55;;
11338;SDS011;5724;42.684;23.252;2023-06-22T07:17:03;19.80;;;17.92;;
11338;SDS011;5724;42.684;23.252;2023-06-22T07:19:28;20.10;;;16.27;;
11338;SDS011;5724;42.684;23.252;2023-06-22T07:21:54;14.18;;;11.80;;
11338;SDS011;5724;42.684;23.252;2023-06-22T07:24:24;13.40;;;12.20;;
11338;SDS011;5724;42.684;23.252;2023-06-22T07:26:52;12.55;;;11.00;;
11338;SDS011;5724;42.684;23.252;2023-06-22T07:29:18;11.02;;;10.13;;
11338;SDS011;5724;42.684;23.252;2023-06-22T07:31:45;10.77;;;9.93;;
11338;SDS011;5724;42.684;23.252;2023-06-22T07:34:11;11.05;;;10.00;;
11338;SDS011;5724;42.684;23.252;2023-06-22T07:36:37;11.57;;;10.77;;
11338;SDS011;5724;42.684;23.252;2023-06-22T07:39:03;11.48;;;10.55;;
11338;SDS011;5724;42.684;23.252;2023-06-22T07:41:29;12.35;;;11.27;;
11338;SDS011;5724;42.684;23.252;2023-06-22T07:43:55;12.32;;;11.48;;
11338;SDS011;5724;42.684;23.252;2023-06-22T07:46:20;12.13;;;11.00;;
11338;SDS011;5724;42.684;23.252;2023-06-22T07:48:46;13.93;;;11.60;;
11338;SDS011;5724;42.684;23.252;2023-06-22T07:51:11;11.80;;;10.88;;
11338;SDS011;5724;42.684;23.252;2023-06-22T07:53:43;12.13;;;11.18;;
11338;SDS011;5724;42.684;23.252;2023-06-22T07:56:12;12.85;;;11.68;;
11338;SDS011;5724;42.684;23.252;2023-06-22T07:58:38;11.60;;;10.73;;
11338;SDS011;5724;42.684;23.252;2023-06-22T08:01:05;12.70;;;11.70;;
11338;SDS011;5724;42.684;23.252;2023-06-22T08:03:31;11.30;;;10.23;;
11338;SDS011;5724;42.684;23.252;2023-06-22T08:05:57;11.75;;;10.95;;
11338;SDS011;5724;42.684;23.252;2023-06-22T08:08:23;12.55;;;11.40;;
11338;SDS011;5724;42.684;23.252;2023-06-22T08:10:48;12.13;;;11.20;;
11338;SDS011;5724;42.684;23.252;2023-06-22T08:13:14;12.32;;;11.50;;
11338;SDS011;5724;42.684;23.252;2023-06-22T08:15:40;12.30;;;11.40;;
11338;SDS011;5724;42.684;23.252;2023-06-22T08:18:05;11.35;;;10.43;;
11338;SDS011;5724;42.684;23.252;2023-06-22T08:20:31;12.38;;;11.40;;
11338;SDS011;5724;42.684;23.252;2023-06-22T08:22:56;12.00;;;10.98;;
11338;SDS011;5724;42.684;23.252;2023-06-22T08:25:25;12.18;;;11.13;;
11338;SDS011;5724;42.684;23.252;2023-06-22T08:27:50;11.55;;;10.70;;
11338;SDS011;5724;42.684;23.252;2023-06-22T08:30:16;11.93;;;10.93;;
11338;SDS011;5724;42.684;23.252;2023-06-22T08:32:43;11.68;;;10.88;;
11338;SDS011;5724;42.684;23.252;2023-06-22T08:35:09;10.88;;;10.35;;
11338;SDS011;5724;42.684;23.252;2023-06-22T08:37:34;10.98;;;10.02;;
11338;SDS011;5724;42.684;23.252;2023-06-22T08:40:01;10.32;;;9.65;;
11338;SDS011;5724;42.684;23.252;2023-06-22T08:42:35;11.48;;;10.75;;
11338;SDS011;5724;42.684;23.252;2023-06-22T08:45:02;11.77;;;10.38;;
11338;SDS011;5724;42.684;23.252;2023-06-22T08:47:29;10.88;;;9.55;;
11338;SDS011;5724;42.684;23.252;2023-06-22T08:49:54;9.38;;;8.98;;
11338;SDS011;5724;42.684;23.252;2023-06-22T08:52:20;10.27;;;9.45;;
11338;SDS011;5724;42.684;23.252;2023-06-22T08:54:46;10.85;;;10.05;;
11338;SDS011;5724;42.684;23.252;2023-06-22T08:57:12;10.77;;;9.98;;
11338;SDS011;5724;42.684;23.252;2023-06-22T08:59:37;9.85;;;9.15;;
11338;SDS011;5724;42.684;23.252;2023-06-22T09:02:03;10.07;;;9.20;;
11338;SDS011;5724;42.684;23.252;2023-06-22T09:04:28;11.95;;;9.20;;
11338;SDS011;5724;42.684;23.252;2023-06-22T09:06:54;9.75;;;9.13;;
11338;SDS011;5724;42.684;23.252;2023-06-22T09:09:21;8.70;;;8.13;;
11338;SDS011;5724;42.684;23.252;2023-06-22T09:11:46;8.88;;;8.27;;
11338;SDS011;5724;42.684;23.252;2023-06-22T09:14:12;8.57;;;8.02;;
11338;SDS011;5724;42.684;23.252;2023-06-22T09:16:38;9.30;;;8.77;;
11338;SDS011;5724;42.684;23.252;2023-06-22T09:19:03;8.50;;;7.95;;
11338;SDS011;5724;42.684;23.252;2023-06-22T09:21:29;9.32;;;8.80;;
11338;SDS011;5724;42.684;23.252;2023-06-22T09:23:54;8.48;;;8.07;;
11338;SDS011;5724;42.684;23.252;2023-06-22T09:26:20;9.30;;;8.40;;
11338;SDS011;5724;42.684;23.252;2023-06-22T09:28:46;9.85;;;8.98;;
11338;SDS011;5724;42.684;23.252;2023-06-22T09:31:12;8.73;;;8.18;;
11338;SDS011;5724;42.684;23.252;2023-06-22T09:33:39;8.50;;;8.07;;
11338;SDS011;5724;42.684;23.252;2023-06-22T09:36:06;7.45;;;7.07;;
11338;SDS011;5724;42.684;23.252;2023-06-22T09:38:36;7.43;;;7.10;;
11338;SDS011;5724;42.684;23.252;2023-06-22T09:41:02;7.88;;;7.38;;
11338;SDS011;5724;42.684;23.252;2023-06-22T09:43:27;8.50;;;7.75;;
11338;SDS011;5724;42.684;23.252;2023-06-22T09:45:53;7.40;;;7.10;;
11338;SDS011;5724;42.684;23.252;2023-06-22T09:48:18;7.40;;;7.00;;
11338;SDS011;5724;42.684;23.252;2023-06-22T09:50:44;8.15;;;7.72;;
11338;SDS011;5724;42.684;23.252;2023-06-22T09:53:09;7.40;;;7.10;;
11338;SDS011;5724;42.684;23.252;2023-06-22T09:55:35;7.78;;;7.28;;
11338;SDS011;5724;42.684;23.252;2023-06-22T09:58:00;8.35;;;7.80;;
11338;SDS011;5724;42.684;23.252;2023-06-22T10:00:26;7.93;;;7.50;;
11338;SDS011;5724;42.684;23.252;2023-06-22T10:02:51;8.05;;;7.55;;
11338;SDS011;5724;42.684;23.252;2023-06-22T10:05:17;7.68;;;7.38;;
11338;SDS011;5724;42.684;23.252;2023-06-22T10:07:43;8.13;;;7.72;;
11338;SDS011;5724;42.684;23.252;2023-06-22T10:10:12;8.50;;;7.70;;
11338;SDS011;5724;42.684;23.252;2023-06-22T10:12:42;7.88;;;7.53;;
11338;SDS011;5724;42.684;23.252;2023-06-22T10:15:09;8.48;;;8.02;;
11338;SDS011;5724;42.684;23.252;2023-06-22T10:17:35;9.07;;;8.65;;
11338;SDS011;5724;42.684;23.252;2023-06-22T10:20:00;8.73;;;8.23;;
11338;SDS011;5724;42.684;23.252;2023-06-22T10:22:31;8.25;;;7.85;;
11338;SDS011;5724;42.684;23.252;2023-06-22T10:24:57;8.40;;;7.80;;
11338;SDS011;5724;42.684;23.252;2023-06-22T10:27:22;7.05;;;6.75;;
11338;SDS011;5724;42.684;23.252;2023-06-22T10:29:48;7.90;;;7.47;;
11338;SDS011;5724;42.684;23.252;2023-06-22T10:32:13;8.25;;;7.65;;
11338;SDS011;5724;42.684;23.252;2023-06-22T10:34:39;7.70;;;7.30;;
11338;SDS011;5724;42.684;23.252;2023-06-22T10:37:04;7.90;;;7.40;;
11338;SDS011;5724;42.684;23.252;2023-06-22T10:39:30;8.00;;;7.30;;
11338;SDS011;5724;42.684;23.252;2023-06-22T10:41:55;8.43;;;7.93;;
11338;SDS011;5724;42.684;23.252;2023-06-22T10:44:21;8.32;;;7.72;;
11338;SDS011;5724;42.684;23.252;2023-06-22T10:46:46;8.57;;;8.27;;
11338;SDS011;5724;42.684;23.252;2023-06-22T10:49:12;8.15;;;7.65;;
11338;SDS011;5724;42.684;23.252;2023-06-22T10:51:37;8.43;;;8.02;;
11338;SDS011;5724;42.684;23.252;2023-06-22T10:54:03;8.70;;;8.20;;
11338;SDS011;5724;42.684;23.252;2023-06-22T10:56:29;9.23;;;8.50;;
11338;SDS011;5724;42.684;23.252;2023-06-22T10:58:54;8.52;;;7.75;;
11338;SDS011;5724;42.684;23.252;2023-06-22T11:01:20;8.80;;;8.05;;
11338;SDS011;5724;42.684;23.252;2023-06-22T11:03:46;8.90;;;8.30;;
11338;SDS011;5724;42.684;23.252;2023-06-22T11:06:11;8.43;;;8.00;;
11338;SDS011;5724;42.684;23.252;2023-06-22T11:08:37;8.50;;;8.00;;
11338;SDS011;5724;42.684;23.252;2023-06-22T11:11:02;8.77;;;7.90;;
11338;SDS011;5724;42.684;23.252;2023-06-22T11:13:28;8.10;;;7.57;;
11338;SDS011;5724;42.684;23.252;2023-06-22T11:15:53;8.32;;;7.82;;
11338;SDS011;5724;42.684;23.252;2023-06-22T11:18:19;8.75;;;7.97;;
11338;SDS011;5724;42.684;23.252;2023-06-22T11:20:44;8.48;;;7.97;;
11338;SDS011;5724;42.684;23.252;2023-06-22T11:23:09;7.40;;;7.10;;
11338;SDS011;5724;42.684;23.252;2023-06-22T11:25:37;7.88;;;7.47;;
11338;SDS011;5724;42.684;23.252;2023-06-22T11:28:03;8.23;;;7.72;;
11338;SDS011;5724;42.684;23.252;2023-06-22T11:30:29;8.13;;;7.80;;
11338;SDS011;5724;42.684;23.252;2023-06-22T11:32:56;7.95;;;7.50;;
11338;SDS011;5724;42.684;23.252;2023-06-22T11:35:23;7.95;;;7.57;;
11338;SDS011;5724;42.684;23.252;2023-06-22T11:37:48;7.85;;;7.45;;
11338;SDS011;5724;42.684;23.252;2023-06-22T11:40:14;8.65;;;7.97;;
11338;SDS011;5724;42.684;23.252;2023-06-22T11:42:39;8.65;;;8.02;;
11338;SDS011;5724;42.684;23.252;2023-06-22T11:45:05;7.93;;;7.45;;
11338;SDS011;5724;42.684;23.252;2023-06-22T11:47:32;8.95;;;8.18;;
11338;SDS011;5724;42.684;23.252;2023-06-22T11:49:57;9.38;;;8.70;;
11338;SDS011;5724;42.684;23.252;2023-06-22T11:52:23;9.00;;;8.43;;
11338;SDS011;5724;42.684;23.252;2023-06-22T11:54:48;9.02;;;8.63;;
11338;SDS011;5724;42.684;23.252;2023-06-22T11:57:14;8.75;;;8.02;;
11338;SDS011;5724;42.684;23.252;2023-06-22T11:59:39;8.45;;;7.93;;
11338;SDS011;5724;42.684;23.252;2023-06-22T12:02:05;8.93;;;8.18;;
11338;SDS011;5724;42.684;23.252;2023-06-22T12:04:32;8.93;;;8.25;;
11338;SDS011;5724;42.684;23.252;2023-06-22T12:06:58;8.80;;;8.10;;
11338;SDS011;5724;42.684;23.252;2023-06-22T12:09:23;9.48;;;8.85;;
11338;SDS011;5724;42.684;23.252;2023-06-22T12:11:49;8.60;;;8.20;;
11338;SDS011;5724;42.684;23.252;2023-06-22T12:14:14;9.38;;;8.80;;
11338;SDS011;5724;42.684;23.252;2023-06-22T12:16:40;9.57;;;8.73;;
11338;SDS011;5724;42.684;23.252;2023-06-22T12:19:05;8.85;;;8.23;;
11338;SDS011;5724;42.684;23.252;2023-06-22T12:21:31;8.60;;;8.07;;
11338;SDS011;5724;42.684;23.252;2023-06-22T12:23:56;10.02;;;9.25;;
11338;SDS011;5724;42.684;23.252;2023-06-22T12:26:22;11.88;;;10.85;;
11338;SDS011;5724;42.684;23.252;2023-06-22T12:28:47;11.13;;;10.13;;
11338;SDS011;5724;42.684;23.252;2023-06-22T12:31:13;12.50;;;11.32;;
11338;SDS011;5724;42.684;23.252;2023-06-22T12:33:39;21.02;;;9.82;;
11338;SDS011;5724;42.684;23.252;2023-06-22T12:36:05;10.98;;;8.32;;
11338;SDS011;5724;42.684;23.252;2023-06-22T12:38:30;9.95;;;7.28;;
11338;SDS011;5724;42.684;23.252;2023-06-22T12:40:56;9.45;;;7.78;;
11338;SDS011;5724;42.684;23.252;2023-06-22T12:43:21;9.48;;;7.53;;
11338;SDS011;5724;42.684;23.252;2023-06-22T12:45:46;9.60;;;6.80;;
11338;SDS011;5724;42.684;23.252;2023-06-22T12:48:12;9.57;;;7.40;;
11338;SDS011;5724;42.684;23.252;2023-06-22T12:50:38;6.80;;;6.28;;
11338;SDS011;5724;42.684;23.252;2023-06-22T12:53:03;7.90;;;6.68;;
11338;SDS011;5724;42.684;23.252;2023-06-22T12:55:31;8.07;;;6.88;;
11338;SDS011;5724;42.684;23.252;2023-06-22T12:57:56;6.78;;;6.32;;
11338;SDS011;5724;42.684;23.252;2023-06-22T13:00:22;7.63;;;6.55;;
11338;SDS011;5724;42.684;23.252;2023-06-22T13:02:48;7.53;;;6.93;;
11338;SDS011;5724;42.684;23.252;2023-06-22T13:05:13;9.30;;;8.60;;
11338;SDS011;5724;42.684;23.252;2023-06-22T13:07:39;10.00;;;9.00;;
11338;SDS011;5724;42.684;23.252;2023-06-22T13:10:05;11.65;;;9.45;;
11338;SDS011;5724;42.684;23.252;2023-06-22T13:12:30;9.07;;;8.48;;
11338;SDS011;5724;42.684;23.252;2023-06-22T13:14:56;12.13;;;7.82;;
11338;SDS011;5724;42.684;23.252;2023-06-22T13:17:22;9.45;;;8.55;;
11338;SDS011;5724;42.684;23.252;2023-06-22T13:19:47;9.25;;;8.65;;
11338;SDS011;5724;42.684;23.252;2023-06-22T13:22:29;10.25;;;9.35;;
11338;SDS011;5724;42.684;23.252;2023-06-22T13:25:04;9.25;;;8.23;;
11338;SDS011;5724;42.684;23.252;2023-06-22T13:27:31;9.32;;;8.57;;
11338;SDS011;5724;42.684;23.252;2023-06-22T13:29:57;9.77;;;8.85;;
11338;SDS011;5724;42.684;23.252;2023-06-22T13:32:22;9.68;;;8.73;;
11338;SDS011;5724;42.684;23.252;2023-06-22T13:34:48;9.73;;;8.77;;
11338;SDS011;5724;42.684;23.252;2023-06-22T13:37:13;8.48;;;7.97;;
11338;SDS011;5724;42.684;23.252;2023-06-22T13:39:39;9.20;;;8.45;;
11338;SDS011;5724;42.684;23.252;2023-06-22T13:42:05;8.40;;;7.82;;
11338;SDS011;5724;42.684;23.252;2023-06-22T13:44:34;8.27;;;7.53;;
11338;SDS011;5724;42.684;23.252;2023-06-22T13:46:59;7.00;;;6.60;;
11338;SDS011;5724;42.684;23.252;2023-06-22T13:49:26;7.60;;;6.90;;
11338;SDS011;5724;42.684;23.252;2023-06-22T13:51:51;7.95;;;7.25;;
11338;SDS011;5724;42.684;23.252;2023-06-22T13:54:17;8.52;;;7.90;;
11338;SDS011;5724;42.684;23.252;2023-06-22T13:56:42;7.90;;;7.22;;
11338;SDS011;5724;42.684;23.252;2023-06-22T13:59:08;9.43;;;8.52;;
11338;SDS011;5724;42.684;23.252;2023-06-22T14:01:35;9.40;;;8.60;;
11338;SDS011;5724;42.684;23.252;2023-06-22T14:04:01;9.68;;;8.90;;
11338;SDS011;5724;42.684;23.252;2023-06-22T14:06:27;8.50;;;7.85;;
11338;SDS011;5724;42.684;23.252;2023-06-22T14:08:53;8.63;;;8.13;;
11338;SDS011;5724;42.684;23.252;2023-06-22T14:11:18;10.07;;;9.25;;
11338;SDS011;5724;42.684;23.252;2023-06-22T14:13:44;10.32;;;9.55;;
11338;SDS011;5724;42.684;23.252;2023-06-22T14:16:09;9.73;;;8.82;;
11338;SDS011;5724;42.684;23.252;2023-06-22T14:18:35;10.18;;;9.30;;
11338;SDS011;5724;42.684;23.252;2023-06-22T14:21:00;8.90;;;8.40;;
11338;SDS011;5724;42.684;23.252;2023-06-22T14:23:26;8.95;;;8.30;;
11338;SDS011;5724;42.684;23.252;2023-06-22T14:25:52;8.80;;;8.20;;
11338;SDS011;5724;42.684;23.252;2023-06-22T14:28:17;9.48;;;8.93;;
11338;SDS011;5724;42.684;23.252;2023-06-22T14:30:43;13.05;;;10.05;;